Thornburg, Arkansas
Current Conditions -  °F | °C
As of 4:53 PM on Wednesday 22 Oct 2014 (Local Time) from KRUE Reporting Station
Clear Clear  
Wind Chill: 71°   Ceiling: Unl
Heat Index: 71°   Visibility: 10mi
Dew Point: 50°   Wind: 5mph
Humidity: 47%   Direction: NA
Pressure: 30.15"   Gusts: NA
Location:  34.9067°N, 93.0072°W
Report Text: KRUE 222153Z AUTO VRB04KT 10SM CLR 22/10 A3015 RMK AO2 SLP203 T02170100
Loading
Personal Weather Stations






























Interactive Weather Map
Tropical Storm Tracking
New forecast layout! Learn more

10-Day Weather Forecast

Advertisements
Track Severe Weather on mobile